sensor_id;sensor_type;location;lat;lon;timestamp;pressure;altitude;pressure_sealevel;temperature;humidity
70559;BME280;58108;48.094;11.838;2022-08-01T00:02:23;95377.88;;;18.90;65.04
70559;BME280;58108;48.094;11.838;2022-08-01T00:04:49;95371.81;;;19.12;62.54
70559;BME280;58108;48.094;11.838;2022-08-01T00:07:14;95373.81;;;19.10;62.57
70559;BME280;58108;48.094;11.838;2022-08-01T00:09:39;95374.47;;;19.12;63.41
70559;BME280;58108;48.094;11.838;2022-08-01T00:12:05;95365.25;;;19.23;62.43
70559;BME280;58108;48.094;11.838;2022-08-01T00:14:30;95370.34;;;19.10;63.71
70559;BME280;58108;48.094;11.838;2022-08-01T00:16:56;95367.38;;;19.05;63.13
70559;BME280;58108;48.094;11.838;2022-08-01T00:19:21;95366.97;;;19.16;63.40
70559;BME280;58108;48.094;11.838;2022-08-01T00:21:46;95371.31;;;19.32;62.93
70559;BME280;58108;48.094;11.838;2022-08-01T00:24:11;95376.94;;;19.37;61.87
70559;BME280;58108;48.094;11.838;2022-08-01T00:26:37;95382.56;;;19.43;61.17
70559;BME280;58108;48.094;11.838;2022-08-01T00:29:02;95384.38;;;19.42;61.47
70559;BME280;58108;48.094;11.838;2022-08-01T00:31:27;95376.69;;;19.47;60.75
70559;BME280;58108;48.094;11.838;2022-08-01T00:33:53;95378.88;;;19.44;61.01
70559;BME280;58108;48.094;11.838;2022-08-01T00:36:18;95379.19;;;19.25;62.35
70559;BME280;58108;48.094;11.838;2022-08-01T00:38:44;95384.84;;;19.22;61.81
70559;BME280;58108;48.094;11.838;2022-08-01T00:41:09;95384.03;;;19.22;61.98
70559;BME280;58108;48.094;11.838;2022-08-01T00:43:34;95377.25;;;19.19;62.44
70559;BME280;58108;48.094;11.838;2022-08-01T00:46:00;95385.44;;;19.09;62.67
70559;BME280;58108;48.094;11.838;2022-08-01T00:48:25;95384.19;;;19.20;63.15
70559;BME280;58108;48.094;11.838;2022-08-01T00:50:51;95381.03;;;19.02;62.58
70559;BME280;58108;48.094;11.838;2022-08-01T00:53:16;95381.53;;;18.89;63.75
70559;BME280;58108;48.094;11.838;2022-08-01T00:55:42;95380.38;;;18.91;63.97
70559;BME280;58108;48.094;11.838;2022-08-01T00:58:07;95383.78;;;18.77;64.57
70559;BME280;58108;48.094;11.838;2022-08-01T01:00:35;95387.78;;;18.72;64.74
70559;BME280;58108;48.094;11.838;2022-08-01T01:03:01;95391.31;;;18.65;64.86
70559;BME280;58108;48.094;11.838;2022-08-01T01:05:26;95391.34;;;18.56;65.20
70559;BME280;58108;48.094;11.838;2022-08-01T01:08:19;95390.09;;;18.76;63.76
70559;BME280;58108;48.094;11.838;2022-08-01T01:10:55;95384.47;;;18.70;64.68
70559;BME280;58108;48.094;11.838;2022-08-01T01:13:43;95390.78;;;18.69;64.06
70559;BME280;58108;48.094;11.838;2022-08-01T01:16:12;95381.06;;;18.62;64.30
70559;BME280;58108;48.094;11.838;2022-08-01T01:18:45;95394.91;;;18.72;64.29
70559;BME280;58108;48.094;11.838;2022-08-01T01:29:41;95387.69;;;18.57;65.04
70559;BME280;58108;48.094;11.838;2022-08-01T01:32:25;95385.72;;;18.51;66.01
70559;BME280;58108;48.094;11.838;2022-08-01T01:34:54;95388.13;;;18.29;65.78
70559;BME280;58108;48.094;11.838;2022-08-01T01:37:23;95393.91;;;18.33;65.74
70559;BME280;58108;48.094;11.838;2022-08-01T01:39:50;95387.81;;;18.33;65.61
70559;BME280;58108;48.094;11.838;2022-08-01T01:42:17;95386.66;;;18.27;65.70
70559;BME280;58108;48.094;11.838;2022-08-01T01:44:47;95390.13;;;18.27;65.70
70559;BME280;58108;48.094;11.838;2022-08-01T01:47:16;95390.00;;;18.21;66.59
70559;BME280;58108;48.094;11.838;2022-08-01T01:49:44;95393.59;;;18.36;65.78
70559;BME280;58108;48.094;11.838;2022-08-01T01:52:12;95389.81;;;18.30;65.92
70559;BME280;58108;48.094;11.838;2022-08-01T01:54:58;95395.47;;;18.02;66.23
70559;BME280;58108;48.094;11.838;2022-08-01T01:57:25;95398.25;;;18.34;65.06
70559;BME280;58108;48.094;11.838;2022-08-01T01:59:53;95393.22;;;18.39;65.26
70559;BME280;58108;48.094;11.838;2022-08-01T02:02:22;95394.59;;;18.35;66.13
70559;BME280;58108;48.094;11.838;2022-08-01T02:04:49;95400.66;;;18.44;66.15
70559;BME280;58108;48.094;11.838;2022-08-01T02:07:20;95391.75;;;18.37;65.64
70559;BME280;58108;48.094;11.838;2022-08-01T02:09:48;95396.59;;;18.25;66.63
70559;BME280;58108;48.094;11.838;2022-08-01T02:12:16;95394.81;;;18.17;66.18
70559;BME280;58108;48.094;11.838;2022-08-01T02:14:43;95398.16;;;17.94;67.34
70559;BME280;58108;48.094;11.838;2022-08-01T02:17:11;95399.47;;;18.07;67.11
70559;BME280;58108;48.094;11.838;2022-08-01T02:19:37;95406.22;;;18.17;65.21
70559;BME280;58108;48.094;11.838;2022-08-01T02:22:11;95400.75;;;18.19;65.38
70559;BME280;58108;48.094;11.838;2022-08-01T02:27:09;95406.47;;;17.66;68.19
70559;BME280;58108;48.094;11.838;2022-08-01T02:29:45;95404.81;;;17.57;68.05
70559;BME280;58108;48.094;11.838;2022-08-01T02:32:18;95402.19;;;17.48;69.25
70559;BME280;58108;48.094;11.838;2022-08-01T02:34:46;95408.13;;;17.34;69.04
70559;BME280;58108;48.094;11.838;2022-08-01T02:37:14;95401.31;;;17.65;67.71
70559;BME280;58108;48.094;11.838;2022-08-01T02:39:41;95416.88;;;17.34;68.81
70559;BME280;58108;48.094;11.838;2022-08-01T02:42:08;95418.22;;;17.47;68.25
70559;BME280;58108;48.094;11.838;2022-08-01T02:44:37;95410.78;;;17.34;69.99
70559;BME280;58108;48.094;11.838;2022-08-01T02:47:04;95415.38;;;17.32;70.03
70559;BME280;58108;48.094;11.838;2022-08-01T02:49:35;95411.94;;;17.56;67.82
70559;BME280;58108;48.094;11.838;2022-08-01T02:52:04;95415.56;;;17.39;70.22
70559;BME280;58108;48.094;11.838;2022-08-01T02:54:32;95419.38;;;17.44;68.86
70559;BME280;58108;48.094;11.838;2022-08-01T02:56:58;95413.88;;;17.21;69.42
70559;BME280;58108;48.094;11.838;2022-08-01T02:59:26;95422.16;;;17.01;70.62
70559;BME280;58108;48.094;11.838;2022-08-01T03:01:56;95423.72;;;16.77;72.50
70559;BME280;58108;48.094;11.838;2022-08-01T03:04:23;95430.31;;;16.73;72.69
70559;BME280;58108;48.094;11.838;2022-08-01T03:06:51;95419.94;;;16.88;71.78
70559;BME280;58108;48.094;11.838;2022-08-01T03:09:18;95429.03;;;16.94;72.00
70559;BME280;58108;48.094;11.838;2022-08-01T03:11:45;95427.91;;;16.53;73.40
70559;BME280;58108;48.094;11.838;2022-08-01T03:14:12;95425.13;;;17.06;70.14
70559;BME280;58108;48.094;11.838;2022-08-01T03:16:42;95427.88;;;16.88;71.12
70559;BME280;58108;48.094;11.838;2022-08-01T03:19:09;95430.31;;;16.73;70.68
70559;BME280;58108;48.094;11.838;2022-08-01T03:21:37;95432.47;;;16.86;71.08
70559;BME280;58108;48.094;11.838;2022-08-01T03:24:04;95426.56;;;16.92;71.82
70559;BME280;58108;48.094;11.838;2022-08-01T03:26:32;95432.78;;;16.75;71.20
70559;BME280;58108;48.094;11.838;2022-08-01T03:29:03;95435.41;;;16.66;72.71
70559;BME280;58108;48.094;11.838;2022-08-01T03:31:32;95439.22;;;16.72;72.25
70559;BME280;58108;48.094;11.838;2022-08-01T03:33:59;95440.22;;;16.71;72.48
70559;BME280;58108;48.094;11.838;2022-08-01T03:36:26;95440.09;;;16.81;70.63
70559;BME280;58108;48.094;11.838;2022-08-01T03:38:56;95435.25;;;16.76;70.68
70559;BME280;58108;48.094;11.838;2022-08-01T03:41:24;95437.78;;;16.86;69.90
70559;BME280;58108;48.094;11.838;2022-08-01T03:44:05;95447.63;;;17.02;69.07
70559;BME280;58108;48.094;11.838;2022-08-01T03:46:46;95444.06;;;16.93;70.19
70559;BME280;58108;48.094;11.838;2022-08-01T03:49:17;95443.91;;;16.87;70.83
70559;BME280;58108;48.094;11.838;2022-08-01T03:51:47;95443.91;;;16.44;72.82
70559;BME280;58108;48.094;11.838;2022-08-01T03:54:16;95451.69;;;16.53;72.06
70559;BME280;58108;48.094;11.838;2022-08-01T03:56:43;95452.31;;;16.82;70.50
70559;BME280;58108;48.094;11.838;2022-08-01T03:59:09;95451.81;;;16.78;70.40
70559;BME280;58108;48.094;11.838;2022-08-01T04:01:36;95455.50;;;16.94;68.45
70559;BME280;58108;48.094;11.838;2022-08-01T04:04:01;95462.06;;;16.81;69.77
70559;BME280;58108;48.094;11.838;2022-08-01T04:06:30;95455.81;;;16.91;69.02
70559;BME280;58108;48.094;11.838;2022-08-01T04:08:55;95455.56;;;17.11;68.04
70559;BME280;58108;48.094;11.838;2022-08-01T04:11:23;95460.88;;;17.27;67.86
70559;BME280;58108;48.094;11.838;2022-08-01T04:13:48;95456.44;;;17.28;67.71
70559;BME280;58108;48.094;11.838;2022-08-01T04:16:14;95459.72;;;17.30;67.24
70559;BME280;58108;48.094;11.838;2022-08-01T04:18:39;95462.38;;;17.21;67.31
70559;BME280;58108;48.094;11.838;2022-08-01T04:21:04;95470.47;;;17.20;67.63
70559;BME280;58108;48.094;11.838;2022-08-01T04:23:30;95471.97;;;17.31;66.60
70559;BME280;58108;48.094;11.838;2022-08-01T04:25:59;95475.94;;;17.18;68.10
70559;BME280;58108;48.094;11.838;2022-08-01T04:28:26;95472.16;;;17.29;66.56
70559;BME280;58108;48.094;11.838;2022-08-01T04:30:55;95478.47;;;17.45;66.19
70559;BME280;58108;48.094;11.838;2022-08-01T04:33:21;95477.97;;;17.49;66.93
70559;BME280;58108;48.094;11.838;2022-08-01T04:35:49;95485.56;;;17.36;66.77
70559;BME280;58108;48.094;11.838;2022-08-01T04:38:19;95479.75;;;17.41;65.92
70559;BME280;58108;48.094;11.838;2022-08-01T04:40:46;95486.56;;;17.43;65.95
70559;BME280;58108;48.094;11.838;2022-08-01T04:43:14;95489.69;;;17.39;66.23
70559;BME280;58108;48.094;11.838;2022-08-01T04:45:40;95492.84;;;17.59;65.37
70559;BME280;58108;48.094;11.838;2022-08-01T04:48:06;95490.88;;;17.61;65.75
70559;BME280;58108;48.094;11.838;2022-08-01T04:50:32;95492.84;;;17.67;65.38
70559;BME280;58108;48.094;11.838;2022-08-01T04:52:57;95491.84;;;17.60;66.09
70559;BME280;58108;48.094;11.838;2022-08-01T04:55:22;95488.53;;;17.91;64.19
70559;BME280;58108;48.094;11.838;2022-08-01T04:57:48;95492.69;;;18.02;64.29
70559;BME280;58108;48.094;11.838;2022-08-01T05:00:14;95491.53;;;17.88;64.44
70559;BME280;58108;48.094;11.838;2022-08-01T05:02:41;95501.00;;;17.82;65.47
70559;BME280;58108;48.094;11.838;2022-08-01T05:05:07;95491.34;;;17.81;65.30
70559;BME280;58108;48.094;11.838;2022-08-01T05:07:32;95496.19;;;17.94;65.89
70559;BME280;58108;48.094;11.838;2022-08-01T05:10:02;95497.47;;;17.98;64.60
70559;BME280;58108;48.094;11.838;2022-08-01T05:12:27;95492.69;;;17.94;64.57
70559;BME280;58108;48.094;11.838;2022-08-01T05:14:52;95495.34;;;17.94;65.24
70559;BME280;58108;48.094;11.838;2022-08-01T05:17:18;95502.31;;;18.11;64.47
70559;BME280;58108;48.094;11.838;2022-08-01T05:19:43;95502.50;;;18.10;64.42
70559;BME280;58108;48.094;11.838;2022-08-01T05:22:09;95508.13;;;18.23;64.55
70559;BME280;58108;48.094;11.838;2022-08-01T05:24:39;95510.56;;;18.25;65.16
70559;BME280;58108;48.094;11.838;2022-08-01T05:27:05;95516.34;;;18.37;64.08
70559;BME280;58108;48.094;11.838;2022-08-01T05:29:33;95515.16;;;18.48;63.93
70559;BME280;58108;48.094;11.838;2022-08-01T05:31:58;95510.53;;;18.58;63.36
70559;BME280;58108;48.094;11.838;2022-08-01T05:34:24;95508.88;;;18.49;63.14
70559;BME280;58108;48.094;11.838;2022-08-01T05:36:49;95502.09;;;18.46;63.60
70559;BME280;58108;48.094;11.838;2022-08-01T05:39:15;95512.22;;;18.42;63.61
70559;BME280;58108;48.094;11.838;2022-08-01T05:41:40;95513.84;;;18.52;64.02
70559;BME280;58108;48.094;11.838;2022-08-01T05:44:06;95519.81;;;18.54;64.48
70559;BME280;58108;48.094;11.838;2022-08-01T05:46:32;95512.69;;;18.54;64.97
70559;BME280;58108;48.094;11.838;2022-08-01T05:48:59;95522.91;;;18.66;64.14
70559;BME280;58108;48.094;11.838;2022-08-01T05:51:25;95524.41;;;18.68;64.23
70559;BME280;58108;48.094;11.838;2022-08-01T05:53:51;95521.69;;;18.85;63.32
70559;BME280;58108;48.094;11.838;2022-08-01T05:56:16;95522.63;;;19.00;63.33
70559;BME280;58108;48.094;11.838;2022-08-01T05:58:41;95521.31;;;19.05;62.72
70559;BME280;58108;48.094;11.838;2022-08-01T06:01:07;95530.38;;;19.19;61.24
70559;BME280;58108;48.094;11.838;2022-08-01T06:03:32;95522.88;;;19.22;60.98
70559;BME280;58108;48.094;11.838;2022-08-01T06:05:59;95534.78;;;19.35;60.80
70559;BME280;58108;48.094;11.838;2022-08-01T06:08:24;95529.31;;;19.36;60.85
70559;BME280;58108;48.094;11.838;2022-08-01T06:10:50;95536.22;;;19.46;59.55
70559;BME280;58108;48.094;11.838;2022-08-01T06:13:17;95531.16;;;19.59;59.97
70559;BME280;58108;48.094;11.838;2022-08-01T06:15:43;95536.09;;;19.62;59.09
70559;BME280;58108;48.094;11.838;2022-08-01T06:18:08;95535.72;;;19.74;58.63
70559;BME280;58108;48.094;11.838;2022-08-01T06:20:33;95538.47;;;19.80;58.74
70559;BME280;58108;48.094;11.838;2022-08-01T06:22:59;95551.88;;;19.87;58.19
70559;BME280;58108;48.094;11.838;2022-08-01T06:25:24;95543.88;;;19.96;58.16
70559;BME280;58108;48.094;11.838;2022-08-01T06:27:49;95549.41;;;20.09;57.47
70559;BME280;58108;48.094;11.838;2022-08-01T06:30:15;95545.41;;;20.13;57.91
70559;BME280;58108;48.094;11.838;2022-08-01T06:32:41;95552.94;;;20.25;58.31
70559;BME280;58108;48.094;11.838;2022-08-01T06:35:06;95549.84;;;20.36;57.79
70559;BME280;58108;48.094;11.838;2022-08-01T06:37:32;95547.19;;;20.36;57.03
70559;BME280;58108;48.094;11.838;2022-08-01T06:40:05;95540.59;;;20.47;56.74
70559;BME280;58108;48.094;11.838;2022-08-01T06:42:32;95541.38;;;20.56;56.51
70559;BME280;58108;48.094;11.838;2022-08-01T06:45:10;95537.69;;;20.72;56.48
70559;BME280;58108;48.094;11.838;2022-08-01T06:47:37;95539.16;;;20.59;55.08
70559;BME280;58108;48.094;11.838;2022-08-01T06:50:06;95546.41;;;20.66;54.49
70559;BME280;58108;48.094;11.838;2022-08-01T06:52:32;95537.34;;;20.75;55.73
70559;BME280;58108;48.094;11.838;2022-08-01T06:54:57;95542.75;;;20.82;55.49
70559;BME280;58108;48.094;11.838;2022-08-01T06:57:23;95544.16;;;20.93;55.88
70559;BME280;58108;48.094;11.838;2022-08-01T06:59:48;95540.66;;;20.92;55.58
70559;BME280;58108;48.094;11.838;2022-08-01T07:02:14;95542.41;;;21.00;55.63
70559;BME280;58108;48.094;11.838;2022-08-01T07:04:39;95530.63;;;21.09;55.11
70559;BME280;58108;48.094;11.838;2022-08-01T07:07:05;95536.31;;;21.21;55.02
70559;BME280;58108;48.094;11.838;2022-08-01T07:09:30;95539.25;;;21.26;55.16
70559;BME280;58108;48.094;11.838;2022-08-01T07:11:55;95541.72;;;21.28;55.20
70559;BME280;58108;48.094;11.838;2022-08-01T07:14:22;95538.56;;;21.39;55.35
70559;BME280;58108;48.094;11.838;2022-08-01T07:16:48;95544.16;;;21.44;54.78
70559;BME280;58108;48.094;11.838;2022-08-01T07:19:14;95546.44;;;21.48;53.79
70559;BME280;58108;48.094;11.838;2022-08-01T07:21:39;95539.69;;;21.45;54.79
70559;BME280;58108;48.094;11.838;2022-08-01T07:24:09;95537.78;;;21.61;54.32
70559;BME280;58108;48.094;11.838;2022-08-01T07:26:35;95544.00;;;21.46;54.21
70559;BME280;58108;48.094;11.838;2022-08-01T07:29:01;95538.66;;;21.46;54.05
70559;BME280;58108;48.094;11.838;2022-08-01T07:31:26;95538.41;;;21.63;54.01
70559;BME280;58108;48.094;11.838;2022-08-01T07:33:52;95542.69;;;21.57;54.17
70559;BME280;58108;48.094;11.838;2022-08-01T07:36:17;95532.69;;;21.81;54.61
70559;BME280;58108;48.094;11.838;2022-08-01T07:38:43;95529.31;;;21.94;52.50
70559;BME280;58108;48.094;11.838;2022-08-01T07:41:09;95529.41;;;21.64;53.35
70559;BME280;58108;48.094;11.838;2022-08-01T07:43:34;95541.06;;;21.78;53.43
70559;BME280;58108;48.094;11.838;2022-08-01T07:46:04;95537.72;;;21.91;53.50
70559;BME280;58108;48.094;11.838;2022-08-01T07:48:29;95528.69;;;22.13;53.11
70559;BME280;58108;48.094;11.838;2022-08-01T07:50:55;95532.44;;;22.26;53.74
70559;BME280;58108;48.094;11.838;2022-08-01T07:53:20;95527.06;;;22.19;52.18
70559;BME280;58108;48.094;11.838;2022-08-01T07:55:46;95528.13;;;22.25;53.17
70559;BME280;58108;48.094;11.838;2022-08-01T07:58:11;95537.59;;;22.27;52.66
70559;BME280;58108;48.094;11.838;2022-08-01T08:00:36;95542.69;;;22.22;52.46
70559;BME280;58108;48.094;11.838;2022-08-01T08:03:03;95539.50;;;22.34;52.84
70559;BME280;58108;48.094;11.838;2022-08-01T08:05:28;95532.56;;;22.39;51.72
70559;BME280;58108;48.094;11.838;2022-08-01T08:07:54;95535.78;;;22.57;52.13
70559;BME280;58108;48.094;11.838;2022-08-01T08:10:20;95536.44;;;22.37;51.13
70559;BME280;58108;48.094;11.838;2022-08-01T08:12:45;95544.06;;;22.40;51.83
70559;BME280;58108;48.094;11.838;2022-08-01T08:15:12;95539.63;;;22.47;52.55
70559;BME280;58108;48.094;11.838;2022-08-01T08:17:38;95544.50;;;22.44;51.93
70559;BME280;58108;48.094;11.838;2022-08-01T08:20:06;95531.38;;;22.49;52.34
70559;BME280;58108;48.094;11.838;2022-08-01T08:22:31;95537.06;;;22.61;50.97
70559;BME280;58108;48.094;11.838;2022-08-01T08:24:57;95542.28;;;22.47;52.41
70559;BME280;58108;48.094;11.838;2022-08-01T08:27:22;95531.91;;;22.59;50.86
70559;BME280;58108;48.094;11.838;2022-08-01T08:29:47;95530.13;;;22.66;49.24
70559;BME280;58108;48.094;11.838;2022-08-01T08:32:13;95522.84;;;22.53;50.63
70559;BME280;58108;48.094;11.838;2022-08-01T08:34:38;95529.91;;;22.68;50.81
70559;BME280;58108;48.094;11.838;2022-08-01T08:37:04;95527.44;;;23.02;50.51
70559;BME280;58108;48.094;11.838;2022-08-01T08:39:29;95526.81;;;23.00;49.85
70559;BME280;58108;48.094;11.838;2022-08-01T08:41:59;95529.91;;;23.03;49.47
70559;BME280;58108;48.094;11.838;2022-08-01T08:44:24;95522.56;;;23.12;49.09
70559;BME280;58108;48.094;11.838;2022-08-01T08:46:51;95526.84;;;23.06;49.95
70559;BME280;58108;48.094;11.838;2022-08-01T08:49:19;95521.75;;;23.18;50.40
70559;BME280;58108;48.094;11.838;2022-08-01T08:51:47;95525.66;;;23.22;49.75
70559;BME280;58108;48.094;11.838;2022-08-01T08:54:14;95526.25;;;23.73;47.84
70559;BME280;58108;48.094;11.838;2022-08-01T08:56:40;95540.47;;;23.74;48.84
70559;BME280;58108;48.094;11.838;2022-08-01T08:59:07;95520.09;;;23.73;46.97
70559;BME280;58108;48.094;11.838;2022-08-01T09:01:32;95529.78;;;23.87;47.80
70559;BME280;58108;48.094;11.838;2022-08-01T09:04:01;95524.19;;;23.69;47.60
70559;BME280;58108;48.094;11.838;2022-08-01T09:06:26;95514.38;;;23.89;46.63
70559;BME280;58108;48.094;11.838;2022-08-01T09:08:53;95530.19;;;23.78;48.50
70559;BME280;58108;48.094;11.838;2022-08-01T09:11:18;95528.72;;;23.68;47.67
70559;BME280;58108;48.094;11.838;2022-08-01T09:16:29;95523.84;;;23.99;47.64
70559;BME280;58108;48.094;11.838;2022-08-01T09:19:06;95524.69;;;24.13;47.75
70559;BME280;58108;48.094;11.838;2022-08-01T09:21:32;95528.94;;;23.80;46.23
70559;BME280;58108;48.094;11.838;2022-08-01T09:23:58;95525.88;;;23.83;47.87
70559;BME280;58108;48.094;11.838;2022-08-01T09:26:31;95526.31;;;24.00;46.20
70559;BME280;58108;48.094;11.838;2022-08-01T09:28:57;95525.91;;;24.10;46.77
70559;BME280;58108;48.094;11.838;2022-08-01T09:31:26;95529.22;;;24.46;46.50
70559;BME280;58108;48.094;11.838;2022-08-01T09:33:55;95524.25;;;24.70;46.01
70559;BME280;58108;48.094;11.838;2022-08-01T09:36:22;95522.22;;;24.52;44.69
70559;BME280;58108;48.094;11.838;2022-08-01T09:38:49;95525.91;;;24.57;44.84
70559;BME280;58108;48.094;11.838;2022-08-01T09:41:15;95521.38;;;24.17;44.93
70559;BME280;58108;48.094;11.838;2022-08-01T09:43:47;95533.13;;;24.16;43.50
70559;BME280;58108;48.094;11.838;2022-08-01T09:46:13;95522.63;;;24.22;43.14
70559;BME280;58108;48.094;11.838;2022-08-01T09:48:38;95531.88;;;24.39;43.82
70559;BME280;58108;48.094;11.838;2022-08-01T09:51:06;95518.28;;;24.48;43.39
70559;BME280;58108;48.094;11.838;2022-08-01T09:53:43;95527.53;;;24.58;43.02
70559;BME280;58108;48.094;11.838;2022-08-01T09:56:10;95512.91;;;24.75;43.65
70559;BME280;58108;48.094;11.838;2022-08-01T09:59:05;95508.56;;;24.74;42.53
70559;BME280;58108;48.094;11.838;2022-08-01T10:01:48;95503.78;;;24.96;43.56
70559;BME280;58108;48.094;11.838;2022-08-01T10:04:19;95501.28;;;25.15;43.80
70559;BME280;58108;48.094;11.838;2022-08-01T10:06:48;95508.78;;;24.79;44.17
70559;BME280;58108;48.094;11.838;2022-08-01T10:09:31;95498.50;;;24.69;43.67
70559;BME280;58108;48.094;11.838;2022-08-01T10:11:58;95497.31;;;25.24;44.35
70559;BME280;58108;48.094;11.838;2022-08-01T10:14:25;95492.34;;;25.28;42.81
70559;BME280;58108;48.094;11.838;2022-08-01T10:16:53;95493.75;;;24.84;44.60
70559;BME280;58108;48.094;11.838;2022-08-01T10:19:22;95492.53;;;24.60;44.12
70559;BME280;58108;48.094;11.838;2022-08-01T10:21:50;95486.84;;;25.16;45.75
70559;BME280;58108;48.094;11.838;2022-08-01T10:24:19;95493.69;;;25.05;45.07
70559;BME280;58108;48.094;11.838;2022-08-01T10:26:47;95490.28;;;24.70;44.07
70559;BME280;58108;48.094;11.838;2022-08-01T10:29:15;95492.97;;;24.50;44.64
70559;BME280;58108;48.094;11.838;2022-08-01T10:31:42;95492.34;;;24.62;44.12
70559;BME280;58108;48.094;11.838;2022-08-01T10:34:08;95481.22;;;25.24;44.24
70559;BME280;58108;48.094;11.838;2022-08-01T10:36:35;95486.09;;;25.40;42.45
70559;BME280;58108;48.094;11.838;2022-08-01T10:39:05;95481.00;;;24.80;42.86
70559;BME280;58108;48.094;11.838;2022-08-01T10:41:33;95480.78;;;24.68;44.33
70559;BME280;58108;48.094;11.838;2022-08-01T10:44:00;95484.28;;;24.68;43.37
70559;BME280;58108;48.094;11.838;2022-08-01T10:46:26;95474.91;;;25.50;43.06
70559;BME280;58108;48.094;11.838;2022-08-01T10:49:00;95475.22;;;25.35;41.98
70559;BME280;58108;48.094;11.838;2022-08-01T10:51:28;95480.91;;;25.52;42.08
70559;BME280;58108;48.094;11.838;2022-08-01T10:53:54;95475.81;;;24.85;43.09
70559;BME280;58108;48.094;11.838;2022-08-01T10:56:21;95470.50;;;25.31;43.49
70559;BME280;58108;48.094;11.838;2022-08-01T10:58:48;95465.78;;;25.19;42.87
70559;BME280;58108;48.094;11.838;2022-08-01T11:03:44;95467.72;;;25.05;43.49
70559;BME280;58108;48.094;11.838;2022-08-01T11:06:17;95464.34;;;25.17;43.52
70559;BME280;58108;48.094;11.838;2022-08-01T11:08:50;95456.84;;;25.39;42.06
70559;BME280;58108;48.094;11.838;2022-08-01T11:11:17;95457.41;;;25.09;41.75
70559;BME280;58108;48.094;11.838;2022-08-01T11:14:03;95459.34;;;24.88;43.98
70559;BME280;58108;48.094;11.838;2022-08-01T11:16:37;95449.72;;;25.19;42.29
70559;BME280;58108;48.094;11.838;2022-08-01T11:19:04;95451.25;;;25.02;43.85
70559;BME280;58108;48.094;11.838;2022-08-01T11:22:08;95447.22;;;25.89;40.51
70559;BME280;58108;48.094;11.838;2022-08-01T11:32:57;95452.75;;;26.19;41.92
70559;BME280;58108;48.094;11.838;2022-08-01T11:35:24;95442.69;;;26.59;40.85
70559;BME280;58108;48.094;11.838;2022-08-01T11:37:55;95445.75;;;26.18;41.83
70559;BME280;58108;48.094;11.838;2022-08-01T11:42:49;95435.09;;;25.86;42.08
70559;BME280;58108;48.094;11.838;2022-08-01T11:45:15;95436.03;;;25.34;42.63
70559;BME280;58108;48.094;11.838;2022-08-01T11:47:50;95448.75;;;26.03;41.18
70559;BME280;58108;48.094;11.838;2022-08-01T11:50:35;95432.13;;;26.20;41.04
70559;BME280;58108;48.094;11.838;2022-08-01T11:53:03;95430.88;;;26.23;40.72
70559;BME280;58108;48.094;11.838;2022-08-01T11:55:30;95438.06;;;27.03;40.24
70559;BME280;58108;48.094;11.838;2022-08-01T11:58:03;95437.38;;;27.27;40.35
70559;BME280;58108;48.094;11.838;2022-08-01T12:00:29;95447.16;;;27.52;39.28
70559;BME280;58108;48.094;11.838;2022-08-01T12:03:05;95438.78;;;27.60;39.44
70559;BME280;58108;48.094;11.838;2022-08-01T12:05:32;95431.41;;;27.25;38.44
70559;BME280;58108;48.094;11.838;2022-08-01T12:07:59;95428.66;;;26.75;39.00
70559;BME280;58108;48.094;11.838;2022-08-01T12:10:28;95430.47;;;26.63;40.24
70559;BME280;58108;48.094;11.838;2022-08-01T12:12:59;95435.38;;;26.66;39.90
70559;BME280;58108;48.094;11.838;2022-08-01T12:15:33;95434.06;;;26.57;38.77
70559;BME280;58108;48.094;11.838;2022-08-01T12:18:00;95436.13;;;27.84;36.13
70559;BME280;58108;48.094;11.838;2022-08-01T12:20:28;95431.47;;;28.75;34.98
70559;BME280;58108;48.094;11.838;2022-08-01T12:22:55;95430.47;;;28.52;34.79
70559;BME280;58108;48.094;11.838;2022-08-01T12:25:22;95431.97;;;28.48;34.72
70559;BME280;58108;48.094;11.838;2022-08-01T12:27:48;95424.81;;;28.06;36.28
70559;BME280;58108;48.094;11.838;2022-08-01T12:30:18;95431.25;;;28.05;35.65
70559;BME280;58108;48.094;11.838;2022-08-01T12:32:46;95422.19;;;27.33;37.08
70559;BME280;58108;48.094;11.838;2022-08-01T12:35:13;95426.22;;;27.54;36.73
70559;BME280;58108;48.094;11.838;2022-08-01T12:42:37;95420.84;;;27.96;35.24
70559;BME280;58108;48.094;11.838;2022-08-01T12:45:04;95419.78;;;27.97;36.93
70559;BME280;58108;48.094;11.838;2022-08-01T12:47:30;95412.28;;;27.88;35.57
70559;BME280;58108;48.094;11.838;2022-08-01T12:49:56;95413.06;;;27.34;35.46
70559;BME280;58108;48.094;11.838;2022-08-01T12:52:22;95402.53;;;27.32;35.99
70559;BME280;58108;48.094;11.838;2022-08-01T12:57:25;95396.44;;;29.91;33.07
70559;BME280;58108;48.094;11.838;2022-08-01T13:00:05;95397.66;;;29.83;33.40
70559;BME280;58108;48.094;11.838;2022-08-01T13:02:32;95396.75;;;29.60;32.08
70559;BME280;58108;48.094;11.838;2022-08-01T13:04:58;95392.53;;;29.06;33.49
70559;BME280;58108;48.094;11.838;2022-08-01T13:07:42;95395.56;;;29.10;33.20
70559;BME280;58108;48.094;11.838;2022-08-01T13:10:08;95392.06;;;28.45;32.84
70559;BME280;58108;48.094;11.838;2022-08-01T13:12:34;95394.13;;;27.83;35.08
70559;BME280;58108;48.094;11.838;2022-08-01T13:14:59;95397.28;;;27.56;33.83
70559;BME280;58108;48.094;11.838;2022-08-01T13:17:38;95382.72;;;28.35;33.72
70559;BME280;58108;48.094;11.838;2022-08-01T13:20:05;95386.53;;;28.51;32.30
70559;BME280;58108;48.094;11.838;2022-08-01T13:22:35;95390.00;;;28.76;34.97
70559;BME280;58108;48.094;11.838;2022-08-01T13:25:14;95396.16;;;28.11;32.42
70559;BME280;58108;48.094;11.838;2022-08-01T13:27:40;95393.56;;;28.64;33.01
70559;BME280;58108;48.094;11.838;2022-08-01T13:30:17;95381.44;;;31.02;29.65